Donny Nolan — WDI7388 — position and weather

sailwx.info

Track history (hours):
 
Tides and Currents Weather Stations Pressure Air Temp Water Temp Dewpoint Dewpoint Depression Visibility Wind Speed Wind Dir Waves Ship Positions

Donny Nolan

Owner: Kirby Inland Marine LP, Houston, TX. More information available from US FCC via Universal Licensing System and Coast Guard Vessel Documentation Center.

Last reported at 2017-Sep-21 22:00 UTC. Time now 2017-Sep-25 01:09 UTC.
Position N 29°47' W 095°04'.

Length 214 m; draft 3 m.

Type: . MMSI: 367415220.

Date/timePositionNaut miles runAvg speedWind from/ knotsBaromVisibWave heightAir tempDewpointWater temp
2017-Sep-21 22:00N 29°47' W 095°04'0 0.0
2017-Sep-21 20:53N 29°47' W 095°04'0 0.6
2017-Sep-21 20:29N 29°47' W 095°04'0 0.3
2017-Sep-21 19:54N 29°47' W 095°04'0 0.0
2017-Sep-21 19:27N 29°47' W 095°04'0 0.0
2017-Sep-21 18:46N 29°47' W 095°04'0 0.0
2017-Sep-21 18:22N 29°47' W 095°04'2 1.0
2017-Sep-21 16:37N 29°46' W 095°05'1 5.3
2017-Sep-21 16:30N 29°46' W 095°05'3 1.3
2017-Sep-21 14:34N 29°44' W 095°07'1 6.3
2017-Sep-21 14:24N 29°44' W 095°08'3 5.6
2017-Sep-21 13:54N 29°45' W 095°11'2 0.1
2017-Sep-20 04:23N 29°44' W 095°14'3 6.0
2017-Sep-20 03:57N 29°45' W 095°11'2 4.9
2017-Sep-20 03:30N 29°44' W 095°09'3 6.4
2017-Sep-20 03:00N 29°46' W 095°05'1 2.1
2017-Sep-20 02:30N 29°46' W 095°04'0 0.0
2017-Sep-20 02:00N 29°46' W 095°04'0 0.0
2017-Sep-20 01:29N 29°46' W 095°04'0 0.0
2017-Sep-20 00:49N 29°46' W 095°04'0 0.0
2017-Sep-20 00:28N 29°46' W 095°04'0 0.0
2017-Sep-19 22:49N 29°46' W 095°04'0 0.0
2017-Sep-19 22:29N 29°46' W 095°04'0 0.0
2017-Sep-19 21:55N 29°46' W 095°04'0 0.0
2017-Sep-19 21:22N 29°46' W 095°04'0 0.0
2017-Sep-19 20:54N 29°46' W 095°04'0 0.0
2017-Sep-19 20:29N 29°46' W 095°04'0 0.0
2017-Sep-19 19:51N 29°46' W 095°04'0 0.0
2017-Sep-19 19:28N 29°46' W 095°04'0 0.0
2017-Sep-19 19:00N 29°46' W 095°04'0 0.0
2017-Sep-19 18:24N 29°46' W 095°04'0 0.0
2017-Sep-19 18:00N 29°46' W 095°04'0 0.0
2017-Sep-19 17:23N 29°46' W 095°04'1 2.3
2017-Sep-19 16:58N 29°47' W 095°05'1 0.4
2017-Sep-19 15:30N 29°47' W 095°04'0 0.2
2017-Sep-19 15:00N 29°47' W 095°04'1 0.9
2017-Sep-19 13:53N 29°46' W 095°05'1 1.7
2017-Sep-19 13:30N 29°46' W 095°04'0 0.0
2017-Sep-19 13:00N 29°46' W 095°04'0 0.0
2017-Sep-19 12:30N 29°46' W 095°04'0 0.0
2017-Sep-19 12:00N 29°46' W 095°04'0 0.0
2017-Sep-19 11:26N 29°46' W 095°04'0 0.0
2017-Sep-19 10:59N 29°46' W 095°04'0 0.0
2017-Sep-19 10:28N 29°46' W 095°04'0 0.0
2017-Sep-19 09:59N 29°46' W 095°04'0 0.0
2017-Sep-19 09:30N 29°46' W 095°04'0 0.0
2017-Sep-19 09:00N 29°46' W 095°04'0 0.0
2017-Sep-19 08:30N 29°46' W 095°04'0 0.0
2017-Sep-19 08:00N 29°46' W 095°04'0 0.0
2017-Sep-19 07:30N 29°46' W 095°04'0 0.0
2017-Sep-19 07:00N 29°46' W 095°04'0 0.0
2017-Sep-19 06:30N 29°46' W 095°04'0 0.0
2017-Sep-19 06:00N 29°46' W 095°04'0 0.0
2017-Sep-19 05:30N 29°46' W 095°04'0 0.7
2017-Sep-19 05:00N 29°45' W 095°04'3 5.8
2017-Sep-19 04:30N 29°44' W 095°02'3 5.8
2017-Sep-19 04:00N 29°42' W 094°59'3 6.3
2017-Sep-19 03:30N 29°39' W 094°58'3 6.5
2017-Sep-19 03:00N 29°36' W 094°56'4 8.0
2017-Sep-19 02:30N 29°32' W 094°54'  
2017-Sep-13 01:42N 29°52' W 093°56'1 6.2
2017-Sep-13 01:29N 29°53' W 093°55'4 7.6
2017-Sep-13 00:59N 29°56' W 093°52'  
Track history (hours):
 
Tides and Currents Weather Stations Pressure Air Temp Water Temp Dewpoint Dewpoint Depression Visibility Wind Speed Wind Dir Waves Ship Positions

Donny Nolan

Owner: Kirby Inland Marine LP, Houston, TX. More information available from US FCC via Universal Licensing System and Coast Guard Vessel Documentation Center.

Last reported at 2017-Sep-21 22:00 UTC. Time now 2017-Sep-25 01:09 UTC.
Position N 29°47' W 095°04'.

Length 214 m; draft 3 m.

Type: . MMSI: 367415220.

Date/timePositionNaut miles runAvg speedWind from/ knotsBaromVisibWave heightAir tempDewpointWater temp
2017-Sep-21 22:00N 29°47' W 095°04'0 0.0
2017-Sep-21 20:53N 29°47' W 095°04'0 0.6
2017-Sep-21 20:29N 29°47' W 095°04'0 0.3
2017-Sep-21 19:54N 29°47' W 095°04'0 0.0
2017-Sep-21 19:27N 29°47' W 095°04'0 0.0
2017-Sep-21 18:46N 29°47' W 095°04'0 0.0
2017-Sep-21 18:22N 29°47' W 095°04'2 1.0
2017-Sep-21 16:37N 29°46' W 095°05'1 5.3
2017-Sep-21 16:30N 29°46' W 095°05'3 1.3
2017-Sep-21 14:34N 29°44' W 095°07'1 6.3
2017-Sep-21 14:24N 29°44' W 095°08'3 5.6
2017-Sep-21 13:54N 29°45' W 095°11'2 0.1
2017-Sep-20 04:23N 29°44' W 095°14'3 6.0
2017-Sep-20 03:57N 29°45' W 095°11'2 4.9
2017-Sep-20 03:30N 29°44' W 095°09'3 6.4
2017-Sep-20 03:00N 29°46' W 095°05'1 2.1
2017-Sep-20 02:30N 29°46' W 095°04'0 0.0
2017-Sep-20 02:00N 29°46' W 095°04'0 0.0
2017-Sep-20 01:29N 29°46' W 095°04'0 0.0
2017-Sep-20 00:49N 29°46' W 095°04'0 0.0
2017-Sep-20 00:28N 29°46' W 095°04'0 0.0
2017-Sep-19 22:49N 29°46' W 095°04'0 0.0
2017-Sep-19 22:29N 29°46' W 095°04'0 0.0
2017-Sep-19 21:55N 29°46' W 095°04'0 0.0
2017-Sep-19 21:22N 29°46' W 095°04'0 0.0
2017-Sep-19 20:54N 29°46' W 095°04'0 0.0
2017-Sep-19 20:29N 29°46' W 095°04'0 0.0
2017-Sep-19 19:51N 29°46' W 095°04'0 0.0
2017-Sep-19 19:28N 29°46' W 095°04'0 0.0
2017-Sep-19 19:00N 29°46' W 095°04'0 0.0
2017-Sep-19 18:24N 29°46' W 095°04'0 0.0
2017-Sep-19 18:00N 29°46' W 095°04'0 0.0
2017-Sep-19 17:23N 29°46' W 095°04'1 2.3
2017-Sep-19 16:58N 29°47' W 095°05'1 0.4
2017-Sep-19 15:30N 29°47' W 095°04'0 0.2
2017-Sep-19 15:00N 29°47' W 095°04'1 0.9
2017-Sep-19 13:53N 29°46' W 095°05'1 1.7
2017-Sep-19 13:30N 29°46' W 095°04'0 0.0
2017-Sep-19 13:00N 29°46' W 095°04'0 0.0
2017-Sep-19 12:30N 29°46' W 095°04'0 0.0
2017-Sep-19 12:00N 29°46' W 095°04'0 0.0
2017-Sep-19 11:26N 29°46' W 095°04'0 0.0
2017-Sep-19 10:59N 29°46' W 095°04'0 0.0
2017-Sep-19 10:28N 29°46' W 095°04'0 0.0
2017-Sep-19 09:59N 29°46' W 095°04'0 0.0
2017-Sep-19 09:30N 29°46' W 095°04'0 0.0
2017-Sep-19 09:00N 29°46' W 095°04'0 0.0
2017-Sep-19 08:30N 29°46' W 095°04'0 0.0
2017-Sep-19 08:00N 29°46' W 095°04'0 0.0
2017-Sep-19 07:30N 29°46' W 095°04'0 0.0
2017-Sep-19 07:00N 29°46' W 095°04'0 0.0
2017-Sep-19 06:30N 29°46' W 095°04'0 0.0
2017-Sep-19 06:00N 29°46' W 095°04'0 0.0
2017-Sep-19 05:30N 29°46' W 095°04'0 0.7
2017-Sep-19 05:00N 29°45' W 095°04'3 5.8
2017-Sep-19 04:30N 29°44' W 095°02'3 5.8
2017-Sep-19 04:00N 29°42' W 094°59'3 6.3
2017-Sep-19 03:30N 29°39' W 094°58'3 6.5
2017-Sep-19 03:00N 29°36' W 094°56'4 8.0
2017-Sep-19 02:30N 29°32' W 094°54'  
2017-Sep-13 01:42N 29°52' W 093°56'1 6.2
2017-Sep-13 01:29N 29°53' W 093°55'4 7.6
2017-Sep-13 00:59N 29°56' W 093°52'  

Dump ship's entire track history